sensor_id;sensor_type;location;lat;lon;timestamp;temperature;humidity
54485;DHT22;45006;56.958;24.166;2023-04-10T00:01:16;21.40;73.20
54485;DHT22;45006;56.958;24.166;2023-04-10T00:03:43;21.40;73.30
54485;DHT22;45006;56.958;24.166;2023-04-10T00:06:10;21.40;73.40
54485;DHT22;45006;56.958;24.166;2023-04-10T00:08:37;21.40;73.50
54485;DHT22;45006;56.958;24.166;2023-04-10T00:11:04;21.40;73.60
54485;DHT22;45006;56.958;24.166;2023-04-10T00:13:31;21.40;73.60
54485;DHT22;45006;56.958;24.166;2023-04-10T00:15:58;21.40;73.60
54485;DHT22;45006;56.958;24.166;2023-04-10T00:18:25;21.40;73.60
54485;DHT22;45006;56.958;24.166;2023-04-10T00:20:52;21.40;73.60
54485;DHT22;45006;56.958;24.166;2023-04-10T00:23:19;21.40;73.80
54485;DHT22;45006;56.958;24.166;2023-04-10T00:25:46;21.40;74.00
54485;DHT22;45006;56.958;24.166;2023-04-10T00:28:14;21.40;73.90
54485;DHT22;45006;56.958;24.166;2023-04-10T00:30:42;21.40;74.00
54485;DHT22;45006;56.958;24.166;2023-04-10T00:33:09;21.40;73.80
54485;DHT22;45006;56.958;24.166;2023-04-10T00:35:36;21.40;73.90
54485;DHT22;45006;56.958;24.166;2023-04-10T00:38:03;21.40;74.00
54485;DHT22;45006;56.958;24.166;2023-04-10T00:40:30;21.40;74.00
54485;DHT22;45006;56.958;24.166;2023-04-10T00:42:57;21.40;74.10
54485;DHT22;45006;56.958;24.166;2023-04-10T00:45:24;21.40;74.30
54485;DHT22;45006;56.958;24.166;2023-04-10T00:47:51;21.40;74.40
54485;DHT22;45006;56.958;24.166;2023-04-10T00:50:20;21.40;74.50
54485;DHT22;45006;56.958;24.166;2023-04-10T00:52:48;21.40;74.50
54485;DHT22;45006;56.958;24.166;2023-04-10T00:55:15;21.40;74.60
54485;DHT22;45006;56.958;24.166;2023-04-10T00:57:46;21.30;74.80
54485;DHT22;45006;56.958;24.166;2023-04-10T01:00:14;21.40;74.80
54485;DHT22;45006;56.958;24.166;2023-04-10T01:02:41;21.40;74.90
54485;DHT22;45006;56.958;24.166;2023-04-10T01:05:09;21.40;75.00
54485;DHT22;45006;56.958;24.166;2023-04-10T01:15:51;21.30;75.00
54485;DHT22;45006;56.958;24.166;2023-04-10T01:18:30;21.30;75.00
54485;DHT22;45006;56.958;24.166;2023-04-10T01:21:01;21.40;75.00
54485;DHT22;45006;56.958;24.166;2023-04-10T01:29:24;21.40;74.90
54485;DHT22;45006;56.958;24.166;2023-04-10T01:31:59;21.40;74.80
54485;DHT22;45006;56.958;24.166;2023-04-10T01:34:36;21.40;74.80
54485;DHT22;45006;56.958;24.166;2023-04-10T01:37:09;21.40;74.50
54485;DHT22;45006;56.958;24.166;2023-04-10T01:39:40;21.40;74.20
54485;DHT22;45006;56.958;24.166;2023-04-10T01:42:10;21.40;74.30
54485;DHT22;45006;56.958;24.166;2023-04-10T01:44:45;21.40;74.20
54485;DHT22;45006;56.958;24.166;2023-04-10T01:47:14;21.40;74.10
54485;DHT22;45006;56.958;24.166;2023-04-10T01:49:46;21.40;74.00
54485;DHT22;45006;56.958;24.166;2023-04-10T01:52:14;21.40;74.00
54485;DHT22;45006;56.958;24.166;2023-04-10T01:54:41;21.30;74.00
54485;DHT22;45006;56.958;24.166;2023-04-10T01:57:11;21.40;74.10
54485;DHT22;45006;56.958;24.166;2023-04-10T01:59:41;21.30;74.10
54485;DHT22;45006;56.958;24.166;2023-04-10T02:02:08;21.30;74.10
54485;DHT22;45006;56.958;24.166;2023-04-10T02:04:37;21.30;74.10
54485;DHT22;45006;56.958;24.166;2023-04-10T02:07:19;21.30;74.10
54485;DHT22;45006;56.958;24.166;2023-04-10T02:12:52;21.30;74.40
54485;DHT22;45006;56.958;24.166;2023-04-10T02:15:23;21.30;74.50
54485;DHT22;45006;56.958;24.166;2023-04-10T02:17:54;21.30;74.70
54485;DHT22;45006;56.958;24.166;2023-04-10T02:20:23;21.30;74.90
54485;DHT22;45006;56.958;24.166;2023-04-10T02:22:50;21.30;74.90
54485;DHT22;45006;56.958;24.166;2023-04-10T02:25:18;21.30;74.90
54485;DHT22;45006;56.958;24.166;2023-04-10T02:27:46;21.30;74.80
54485;DHT22;45006;56.958;24.166;2023-04-10T02:30:13;21.30;74.90
54485;DHT22;45006;56.958;24.166;2023-04-10T02:32:39;21.30;74.90
54485;DHT22;45006;56.958;24.166;2023-04-10T02:35:07;21.30;75.00
54485;DHT22;45006;56.958;24.166;2023-04-10T02:37:34;21.30;74.90
54485;DHT22;45006;56.958;24.166;2023-04-10T02:40:03;21.30;74.80
54485;DHT22;45006;56.958;24.166;2023-04-10T02:42:30;21.30;75.10
54485;DHT22;45006;56.958;24.166;2023-04-10T02:44:57;21.20;75.00
54485;DHT22;45006;56.958;24.166;2023-04-10T02:47:24;21.30;75.00
54485;DHT22;45006;56.958;24.166;2023-04-10T02:49:51;21.20;75.00
54485;DHT22;45006;56.958;24.166;2023-04-10T02:52:18;21.30;75.00
54485;DHT22;45006;56.958;24.166;2023-04-10T02:54:45;21.30;74.90
54485;DHT22;45006;56.958;24.166;2023-04-10T02:57:13;21.30;74.90
54485;DHT22;45006;56.958;24.166;2023-04-10T02:59:40;21.30;74.80
54485;DHT22;45006;56.958;24.166;2023-04-10T03:02:07;21.30;74.90
54485;DHT22;45006;56.958;24.166;2023-04-10T03:04:35;21.30;74.90
54485;DHT22;45006;56.958;24.166;2023-04-10T03:07:02;21.20;74.90
54485;DHT22;45006;56.958;24.166;2023-04-10T03:09:29;21.20;74.90
54485;DHT22;45006;56.958;24.166;2023-04-10T03:11:56;21.20;74.90
54485;DHT22;45006;56.958;24.166;2023-04-10T03:14:23;21.20;75.00
54485;DHT22;45006;56.958;24.166;2023-04-10T03:16:51;21.20;75.00
54485;DHT22;45006;56.958;24.166;2023-04-10T03:19:18;21.20;75.00
54485;DHT22;45006;56.958;24.166;2023-04-10T03:21:45;21.20;75.00
54485;DHT22;45006;56.958;24.166;2023-04-10T03:24:12;21.20;75.00
54485;DHT22;45006;56.958;24.166;2023-04-10T03:26:42;21.20;75.00
54485;DHT22;45006;56.958;24.166;2023-04-10T03:29:09;21.20;75.00
54485;DHT22;45006;56.958;24.166;2023-04-10T03:31:36;21.20;75.10
54485;DHT22;45006;56.958;24.166;2023-04-10T03:34:03;21.20;75.30
54485;DHT22;45006;56.958;24.166;2023-04-10T03:36:30;21.20;75.30
54485;DHT22;45006;56.958;24.166;2023-04-10T03:38:57;21.20;75.40
54485;DHT22;45006;56.958;24.166;2023-04-10T03:41:24;21.20;75.40
54485;DHT22;45006;56.958;24.166;2023-04-10T03:43:51;21.20;75.40
54485;DHT22;45006;56.958;24.166;2023-04-10T03:46:18;21.20;75.40
54485;DHT22;45006;56.958;24.166;2023-04-10T03:48:46;21.20;75.40
54485;DHT22;45006;56.958;24.166;2023-04-10T03:51:13;21.20;75.40
54485;DHT22;45006;56.958;24.166;2023-04-10T03:53:39;21.20;75.30
54485;DHT22;45006;56.958;24.166;2023-04-10T03:56:07;21.20;75.50
54485;DHT22;45006;56.958;24.166;2023-04-10T03:58:34;21.20;75.50
54485;DHT22;45006;56.958;24.166;2023-04-10T04:01:01;21.20;75.50
54485;DHT22;45006;56.958;24.166;2023-04-10T04:03:28;21.20;75.50
54485;DHT22;45006;56.958;24.166;2023-04-10T04:05:55;21.20;75.50
54485;DHT22;45006;56.958;24.166;2023-04-10T04:08:22;21.20;75.60
54485;DHT22;45006;56.958;24.166;2023-04-10T04:10:49;21.20;75.50
54485;DHT22;45006;56.958;24.166;2023-04-10T04:13:16;21.20;75.50
54485;DHT22;45006;56.958;24.166;2023-04-10T04:15:43;21.20;75.50
54485;DHT22;45006;56.958;24.166;2023-04-10T04:18:10;21.20;75.50
54485;DHT22;45006;56.958;24.166;2023-04-10T04:20:37;21.20;75.50
54485;DHT22;45006;56.958;24.166;2023-04-10T04:23:04;21.20;75.50
54485;DHT22;45006;56.958;24.166;2023-04-10T04:25:31;21.20;75.60
54485;DHT22;45006;56.958;24.166;2023-04-10T04:27:58;21.20;75.70
54485;DHT22;45006;56.958;24.166;2023-04-10T04:30:25;21.20;75.70
54485;DHT22;45006;56.958;24.166;2023-04-10T04:32:54;21.20;75.70
54485;DHT22;45006;56.958;24.166;2023-04-10T04:35:21;21.20;75.70
54485;DHT22;45006;56.958;24.166;2023-04-10T04:37:48;21.20;76.30
54485;DHT22;45006;56.958;24.166;2023-04-10T04:40:15;21.20;75.60
54485;DHT22;45006;56.958;24.166;2023-04-10T04:42:42;21.20;75.40
54485;DHT22;45006;56.958;24.166;2023-04-10T04:45:09;21.20;75.50
54485;DHT22;45006;56.958;24.166;2023-04-10T04:47:36;21.20;75.70
54485;DHT22;45006;56.958;24.166;2023-04-10T04:50:03;21.30;74.50
54485;DHT22;45006;56.958;24.166;2023-04-10T04:52:32;21.30;73.50
54485;DHT22;45006;56.958;24.166;2023-04-10T04:55:00;21.40;72.60
54485;DHT22;45006;56.958;24.166;2023-04-10T04:57:27;21.40;72.50
54485;DHT22;45006;56.958;24.166;2023-04-10T04:59:55;21.50;72.60
54485;DHT22;45006;56.958;24.166;2023-04-10T05:02:22;21.50;72.00
54485;DHT22;45006;56.958;24.166;2023-04-10T05:04:49;21.50;71.20
54485;DHT22;45006;56.958;24.166;2023-04-10T05:07:17;21.60;71.40
54485;DHT22;45006;56.958;24.166;2023-04-10T05:09:43;21.50;71.20
54485;DHT22;45006;56.958;24.166;2023-04-10T05:12:11;21.60;71.00
54485;DHT22;45006;56.958;24.166;2023-04-10T05:14:37;21.70;70.90
54485;DHT22;45006;56.958;24.166;2023-04-10T05:17:04;21.60;70.80
54485;DHT22;45006;56.958;24.166;2023-04-10T05:19:31;21.70;70.90
54485;DHT22;45006;56.958;24.166;2023-04-10T05:21:58;21.70;70.30
54485;DHT22;45006;56.958;24.166;2023-04-10T05:24:25;21.70;71.30
54485;DHT22;45006;56.958;24.166;2023-04-10T05:26:52;21.80;72.00
54485;DHT22;45006;56.958;24.166;2023-04-10T05:29:19;21.80;70.90
54485;DHT22;45006;56.958;24.166;2023-04-10T05:31:46;21.80;70.60
54485;DHT22;45006;56.958;24.166;2023-04-10T05:34:12;21.90;70.60
54485;DHT22;45006;56.958;24.166;2023-04-10T05:36:39;21.90;70.30
54485;DHT22;45006;56.958;24.166;2023-04-10T05:39:06;21.90;70.00
54485;DHT22;45006;56.958;24.166;2023-04-10T05:41:33;22.00;70.10
54485;DHT22;45006;56.958;24.166;2023-04-10T05:44:00;22.00;71.00
54485;DHT22;45006;56.958;24.166;2023-04-10T05:46:27;22.00;70.50
54485;DHT22;45006;56.958;24.166;2023-04-10T05:48:54;22.00;70.00
54485;DHT22;45006;56.958;24.166;2023-04-10T05:51:21;22.00;69.90
54485;DHT22;45006;56.958;24.166;2023-04-10T05:53:49;22.00;70.00
54485;DHT22;45006;56.958;24.166;2023-04-10T05:56:16;22.00;69.70
54485;DHT22;45006;56.958;24.166;2023-04-10T05:58:43;22.10;69.70
54485;DHT22;45006;56.958;24.166;2023-04-10T06:01:10;22.10;69.70
54485;DHT22;45006;56.958;24.166;2023-04-10T06:03:39;22.10;69.70
54485;DHT22;45006;56.958;24.166;2023-04-10T06:06:06;22.10;69.70
54485;DHT22;45006;56.958;24.166;2023-04-10T06:08:33;22.10;69.90
54485;DHT22;45006;56.958;24.166;2023-04-10T06:11:00;22.10;70.00
54485;DHT22;45006;56.958;24.166;2023-04-10T06:13:27;22.10;69.80
54485;DHT22;45006;56.958;24.166;2023-04-10T06:15:54;22.10;70.10
54485;DHT22;45006;56.958;24.166;2023-04-10T06:18:21;22.10;69.40
54485;DHT22;45006;56.958;24.166;2023-04-10T06:20:48;22.10;69.30
54485;DHT22;45006;56.958;24.166;2023-04-10T06:23:15;22.10;69.30
54485;DHT22;45006;56.958;24.166;2023-04-10T06:25:42;22.20;69.40
54485;DHT22;45006;56.958;24.166;2023-04-10T06:28:09;22.10;69.50
54485;DHT22;45006;56.958;24.166;2023-04-10T06:30:37;22.10;69.40
54485;DHT22;45006;56.958;24.166;2023-04-10T06:33:04;22.20;69.80
54485;DHT22;45006;56.958;24.166;2023-04-10T06:35:31;22.10;69.80
54485;DHT22;45006;56.958;24.166;2023-04-10T06:37:58;22.10;69.80
54485;DHT22;45006;56.958;24.166;2023-04-10T06:40:25;22.20;70.00
54485;DHT22;45006;56.958;24.166;2023-04-10T06:42:55;22.20;69.70
54485;DHT22;45006;56.958;24.166;2023-04-10T06:45:22;22.20;69.70
54485;DHT22;45006;56.958;24.166;2023-04-10T06:47:49;22.20;69.40
54485;DHT22;45006;56.958;24.166;2023-04-10T06:50:17;22.20;69.70
54485;DHT22;45006;56.958;24.166;2023-04-10T06:52:46;22.20;69.60
54485;DHT22;45006;56.958;24.166;2023-04-10T06:55:13;22.20;69.90
54485;DHT22;45006;56.958;24.166;2023-04-10T06:57:40;22.10;69.70
54485;DHT22;45006;56.958;24.166;2023-04-10T07:00:08;22.20;70.40
54485;DHT22;45006;56.958;24.166;2023-04-10T07:02:35;22.20;70.60
54485;DHT22;45006;56.958;24.166;2023-04-10T07:05:03;22.10;70.10
54485;DHT22;45006;56.958;24.166;2023-04-10T07:07:31;22.20;71.80
54485;DHT22;45006;56.958;24.166;2023-04-10T07:09:58;22.20;72.10
54485;DHT22;45006;56.958;24.166;2023-04-10T07:12:25;22.30;72.10
54485;DHT22;45006;56.958;24.166;2023-04-10T07:14:52;22.20;70.80
54485;DHT22;45006;56.958;24.166;2023-04-10T07:17:20;22.30;70.70
54485;DHT22;45006;56.958;24.166;2023-04-10T07:19:47;22.20;70.40
54485;DHT22;45006;56.958;24.166;2023-04-10T07:22:14;22.20;71.60
54485;DHT22;45006;56.958;24.166;2023-04-10T07:24:42;22.20;70.80
54485;DHT22;45006;56.958;24.166;2023-04-10T07:27:09;22.20;70.80
54485;DHT22;45006;56.958;24.166;2023-04-10T07:29:38;22.20;71.00
54485;DHT22;45006;56.958;24.166;2023-04-10T07:32:06;22.20;70.90
54485;DHT22;45006;56.958;24.166;2023-04-10T07:34:33;22.10;70.10
54485;DHT22;45006;56.958;24.166;2023-04-10T07:37:00;22.10;70.80
54485;DHT22;45006;56.958;24.166;2023-04-10T07:39:27;22.10;70.60
54485;DHT22;45006;56.958;24.166;2023-04-10T07:41:55;22.10;70.70
54485;DHT22;45006;56.958;24.166;2023-04-10T07:44:22;22.10;70.90
54485;DHT22;45006;56.958;24.166;2023-04-10T07:46:49;22.10;71.00
54485;DHT22;45006;56.958;24.166;2023-04-10T07:49:17;22.10;71.20
54485;DHT22;45006;56.958;24.166;2023-04-10T07:51:44;22.10;71.30
54485;DHT22;45006;56.958;24.166;2023-04-10T07:54:12;22.10;72.40
54485;DHT22;45006;56.958;24.166;2023-04-10T07:56:39;22.10;72.10
54485;DHT22;45006;56.958;24.166;2023-04-10T07:59:06;22.10;72.10
54485;DHT22;45006;56.958;24.166;2023-04-10T08:01:34;22.10;71.90
54485;DHT22;45006;56.958;24.166;2023-04-10T08:04:03;22.10;72.20
54485;DHT22;45006;56.958;24.166;2023-04-10T08:06:31;22.10;72.30
54485;DHT22;45006;56.958;24.166;2023-04-10T08:09:00;22.10;72.50
54485;DHT22;45006;56.958;24.166;2023-04-10T08:11:32;22.10;72.70
54485;DHT22;45006;56.958;24.166;2023-04-10T08:14:02;22.10;72.90
54485;DHT22;45006;56.958;24.166;2023-04-10T08:16:35;22.10;73.50
54485;DHT22;45006;56.958;24.166;2023-04-10T08:19:02;22.10;72.90
54485;DHT22;45006;56.958;24.166;2023-04-10T08:21:30;22.10;72.70
54485;DHT22;45006;56.958;24.166;2023-04-10T08:24:02;22.10;73.00
54485;DHT22;45006;56.958;24.166;2023-04-10T08:26:29;22.10;72.60
54485;DHT22;45006;56.958;24.166;2023-04-10T08:28:57;22.10;72.50
54485;DHT22;45006;56.958;24.166;2023-04-10T08:31:26;22.10;72.70
54485;DHT22;45006;56.958;24.166;2023-04-10T08:33:55;22.10;73.20
54485;DHT22;45006;56.958;24.166;2023-04-10T08:36:24;22.10;73.00
54485;DHT22;45006;56.958;24.166;2023-04-10T08:38:53;22.10;73.10
54485;DHT22;45006;56.958;24.166;2023-04-10T08:41:19;22.00;73.30
54485;DHT22;45006;56.958;24.166;2023-04-10T08:43:47;22.10;73.00
54485;DHT22;45006;56.958;24.166;2023-04-10T08:46:16;22.10;72.90
54485;DHT22;45006;56.958;24.166;2023-04-10T08:51:21;22.00;72.90
54485;DHT22;45006;56.958;24.166;2023-04-10T08:53:56;22.00;72.90
54485;DHT22;45006;56.958;24.166;2023-04-10T08:56:24;22.00;73.10
54485;DHT22;45006;56.958;24.166;2023-04-10T08:58:54;22.00;73.10
54485;DHT22;45006;56.958;24.166;2023-04-10T09:01:22;22.00;73.00
54485;DHT22;45006;56.958;24.166;2023-04-10T09:03:50;22.00;73.10
54485;DHT22;45006;56.958;24.166;2023-04-10T09:06:18;22.00;73.30
54485;DHT22;45006;56.958;24.166;2023-04-10T09:08:45;22.00;73.20
54485;DHT22;45006;56.958;24.166;2023-04-10T09:11:12;22.00;73.20
54485;DHT22;45006;56.958;24.166;2023-04-10T09:13:40;22.00;73.00
54485;DHT22;45006;56.958;24.166;2023-04-10T09:16:09;22.00;72.90
54485;DHT22;45006;56.958;24.166;2023-04-10T09:18:47;22.00;73.30
54485;DHT22;45006;56.958;24.166;2023-04-10T09:21:18;22.00;73.50
54485;DHT22;45006;56.958;24.166;2023-04-10T09:23:47;22.00;73.00
54485;DHT22;45006;56.958;24.166;2023-04-10T09:26:25;21.90;72.90
54485;DHT22;45006;56.958;24.166;2023-04-10T09:28:58;22.00;72.90
54485;DHT22;45006;56.958;24.166;2023-04-10T09:36:34;21.90;73.00
54485;DHT22;45006;56.958;24.166;2023-04-10T09:39:04;21.90;73.40
54485;DHT22;45006;56.958;24.166;2023-04-10T09:41:31;21.90;73.30
54485;DHT22;45006;56.958;24.166;2023-04-10T09:44:09;21.90;73.00
54485;DHT22;45006;56.958;24.166;2023-04-10T09:46:39;21.90;72.90
54485;DHT22;45006;56.958;24.166;2023-04-10T09:49:07;21.90;73.20
54485;DHT22;45006;56.958;24.166;2023-04-10T09:51:35;21.90;72.90
54485;DHT22;45006;56.958;24.166;2023-04-10T09:54:03;21.90;72.40
54485;DHT22;45006;56.958;24.166;2023-04-10T09:56:34;21.90;72.10
54485;DHT22;45006;56.958;24.166;2023-04-10T09:59:03;21.90;72.10
54485;DHT22;45006;56.958;24.166;2023-04-10T10:01:32;21.90;72.20
54485;DHT22;45006;56.958;24.166;2023-04-10T10:04:03;21.90;72.50
54485;DHT22;45006;56.958;24.166;2023-04-10T10:06:31;21.90;72.20
54485;DHT22;45006;56.958;24.166;2023-04-10T10:09:02;21.80;72.20
54485;DHT22;45006;56.958;24.166;2023-04-10T10:11:34;21.90;72.90
54485;DHT22;45006;56.958;24.166;2023-04-10T10:14:14;21.80;74.50
54485;DHT22;45006;56.958;24.166;2023-04-10T10:16:50;21.70;74.90
54485;DHT22;45006;56.958;24.166;2023-04-10T10:19:29;21.80;74.10
54485;DHT22;45006;56.958;24.166;2023-04-10T10:21:59;21.80;70.00
54485;DHT22;45006;56.958;24.166;2023-04-10T10:24:28;21.90;67.40
54485;DHT22;45006;56.958;24.166;2023-04-10T10:26:58;21.90;68.00
54485;DHT22;45006;56.958;24.166;2023-04-10T10:29:31;21.90;67.80
54485;DHT22;45006;56.958;24.166;2023-04-10T10:32:00;21.90;68.00
54485;DHT22;45006;56.958;24.166;2023-04-10T10:34:29;21.80;68.10
54485;DHT22;45006;56.958;24.166;2023-04-10T10:36:59;21.80;68.50
54485;DHT22;45006;56.958;24.166;2023-04-10T10:44:35;21.80;68.80
54485;DHT22;45006;56.958;24.166;2023-04-10T10:47:39;21.80;64.60
54485;DHT22;45006;56.958;24.166;2023-04-10T10:50:07;21.70;59.30
54485;DHT22;45006;56.958;24.166;2023-04-10T10:52:51;21.60;54.70
54485;DHT22;45006;56.958;24.166;2023-04-10T10:57:51;21.50;54.40
54485;DHT22;45006;56.958;24.166;2023-04-10T11:00:21;21.40;51.80
54485;DHT22;45006;56.958;24.166;2023-04-10T11:05:54;21.30;50.00
54485;DHT22;45006;56.958;24.166;2023-04-10T11:08:35;21.30;49.60
54485;DHT22;45006;56.958;24.166;2023-04-10T11:13:39;21.20;50.10
54485;DHT22;45006;56.958;24.166;2023-04-10T11:16:09;21.30;51.70
54485;DHT22;45006;56.958;24.166;2023-04-10T11:21:22;21.40;56.10
54485;DHT22;45006;56.958;24.166;2023-04-10T11:31:45;21.50;58.30
54485;DHT22;45006;56.958;24.166;2023-04-10T11:34:13;21.50;58.50
54485;DHT22;45006;56.958;24.166;2023-04-10T11:36:42;21.50;59.60
54485;DHT22;45006;56.958;24.166;2023-04-10T11:39:11;21.50;58.30
54485;DHT22;45006;56.958;24.166;2023-04-10T11:41:48;21.50;59.00
54485;DHT22;45006;56.958;24.166;2023-04-10T11:46:52;21.50;59.90
54485;DHT22;45006;56.958;24.166;2023-04-10T11:49:21;21.50;60.10
54485;DHT22;45006;56.958;24.166;2023-04-10T11:51:50;21.50;60.30
54485;DHT22;45006;56.958;24.166;2023-04-10T11:54:24;21.50;61.40
54485;DHT22;45006;56.958;24.166;2023-04-10T11:57:07;21.50;61.30
54485;DHT22;45006;56.958;24.166;2023-04-10T11:59:35;21.50;61.80
54485;DHT22;45006;56.958;24.166;2023-04-10T12:02:10;21.50;62.30
54485;DHT22;45006;56.958;24.166;2023-04-10T12:04:40;21.50;62.80
54485;DHT22;45006;56.958;24.166;2023-04-10T12:07:09;21.50;63.10
54485;DHT22;45006;56.958;24.166;2023-04-10T12:09:36;21.50;63.40
54485;DHT22;45006;56.958;24.166;2023-04-10T12:12:04;21.50;63.80
54485;DHT22;45006;56.958;24.166;2023-04-10T12:14:41;21.50;63.80
54485;DHT22;45006;56.958;24.166;2023-04-10T12:17:09;21.50;64.10
54485;DHT22;45006;56.958;24.166;2023-04-10T12:19:40;21.50;64.30
54485;DHT22;45006;56.958;24.166;2023-04-10T12:22:09;21.50;64.50
54485;DHT22;45006;56.958;24.166;2023-04-10T12:24:51;21.50;64.70
54485;DHT22;45006;56.958;24.166;2023-04-10T12:27:26;21.50;65.00
54485;DHT22;45006;56.958;24.166;2023-04-10T12:29:56;21.50;65.20
54485;DHT22;45006;56.958;24.166;2023-04-10T12:32:24;21.50;65.20
54485;DHT22;45006;56.958;24.166;2023-04-10T12:34:57;21.50;65.40
54485;DHT22;45006;56.958;24.166;2023-04-10T12:37:46;21.50;66.20
54485;DHT22;45006;56.958;24.166;2023-04-10T12:40:13;21.50;65.70
54485;DHT22;45006;56.958;24.166;2023-04-10T12:42:40;21.50;66.00
54485;DHT22;45006;56.958;24.166;2023-04-10T12:45:08;21.50;66.10
54485;DHT22;45006;56.958;24.166;2023-04-10T12:47:47;21.50;66.20
54485;DHT22;45006;56.958;24.166;2023-04-10T12:50:16;21.50;66.40
54485;DHT22;45006;56.958;24.166;2023-04-10T12:52:59;21.50;66.60
54485;DHT22;45006;56.958;24.166;2023-04-10T12:55:27;21.50;67.00
54485;DHT22;45006;56.958;24.166;2023-04-10T12:58:17;21.50;65.20
54485;DHT22;45006;56.958;24.166;2023-04-10T13:00:48;21.50;65.10
54485;DHT22;45006;56.958;24.166;2023-04-10T13:03:16;21.60;64.90
54485;DHT22;45006;56.958;24.166;2023-04-10T13:05:43;21.60;66.30
54485;DHT22;45006;56.958;24.166;2023-04-10T13:08:10;21.60;65.30
54485;DHT22;45006;56.958;24.166;2023-04-10T13:10:37;21.60;64.80
54485;DHT22;45006;56.958;24.166;2023-04-10T13:13:04;21.60;64.90
54485;DHT22;45006;56.958;24.166;2023-04-10T13:15:33;21.60;65.00
54485;DHT22;45006;56.958;24.166;2023-04-10T13:18:00;21.60;65.00
54485;DHT22;45006;56.958;24.166;2023-04-10T13:20:34;21.60;65.00
54485;DHT22;45006;56.958;24.166;2023-04-10T13:23:02;21.60;65.40
54485;DHT22;45006;56.958;24.166;2023-04-10T13:25:31;21.60;65.80
54485;DHT22;45006;56.958;24.166;2023-04-10T13:28:02;21.60;66.10
54485;DHT22;45006;56.958;24.166;2023-04-10T13:30:40;21.60;66.40
54485;DHT22;45006;56.958;24.166;2023-04-10T13:33:07;21.70;66.90
54485;DHT22;45006;56.958;24.166;2023-04-10T13:35:35;21.60;67.20
54485;DHT22;45006;56.958;24.166;2023-04-10T13:38:02;21.70;67.30
54485;DHT22;45006;56.958;24.166;2023-04-10T13:40:29;21.70;67.40
54485;DHT22;45006;56.958;24.166;2023-04-10T13:42:56;21.70;68.20
54485;DHT22;45006;56.958;24.166;2023-04-10T13:45:23;21.70;67.60
54485;DHT22;45006;56.958;24.166;2023-04-10T13:47:51;21.70;67.90
54485;DHT22;45006;56.958;24.166;2023-04-10T13:50:18;21.70;68.10
54485;DHT22;45006;56.958;24.166;2023-04-10T13:52:45;21.70;68.00
54485;DHT22;45006;56.958;24.166;2023-04-10T13:55:12;21.70;68.20
54485;DHT22;45006;56.958;24.166;2023-04-10T13:57:39;21.70;68.20
54485;DHT22;45006;56.958;24.166;2023-04-10T14:00:06;21.70;68.80
54485;DHT22;45006;56.958;24.166;2023-04-10T14:02:35;21.70;68.90
54485;DHT22;45006;56.958;24.166;2023-04-10T14:05:03;21.70;68.80
54485;DHT22;45006;56.958;24.166;2023-04-10T14:07:30;21.70;69.00
54485;DHT22;45006;56.958;24.166;2023-04-10T14:09:59;21.70;68.90
54485;DHT22;45006;56.958;24.166;2023-04-10T14:12:28;21.70;68.90
54485;DHT22;45006;56.958;24.166;2023-04-10T14:14:55;21.70;69.00
54485;DHT22;45006;56.958;24.166;2023-04-10T14:17:22;21.70;69.00
54485;DHT22;45006;56.958;24.166;2023-04-10T14:19:50;21.70;69.00
54485;DHT22;45006;56.958;24.166;2023-04-10T14:22:19;21.70;68.90
54485;DHT22;45006;56.958;24.166;2023-04-10T14:24:46;21.60;68.50
54485;DHT22;45006;56.958;24.166;2023-04-10T14:27:14;21.70;68.80
54485;DHT22;45006;56.958;24.166;2023-04-10T14:29:42;21.60;68.60
54485;DHT22;45006;56.958;24.166;2023-04-10T14:32:20;21.60;68.70
54485;DHT22;45006;56.958;24.166;2023-04-10T14:34:47;21.60;68.30
54485;DHT22;45006;56.958;24.166;2023-04-10T14:37:14;21.60;68.60
54485;DHT22;45006;56.958;24.166;2023-04-10T14:39:41;21.50;69.10
54485;DHT22;45006;56.958;24.166;2023-04-10T14:42:08;21.60;69.10
54485;DHT22;45006;56.958;24.166;2023-04-10T14:44:36;21.60;69.30
54485;DHT22;45006;56.958;24.166;2023-04-10T14:47:03;21.60;70.00
54485;DHT22;45006;56.958;24.166;2023-04-10T14:49:32;21.60;70.60
54485;DHT22;45006;56.958;24.166;2023-04-10T14:51:59;21.60;70.80
54485;DHT22;45006;56.958;24.166;2023-04-10T14:54:26;21.60;70.60
54485;DHT22;45006;56.958;24.166;2023-04-10T14:56:53;21.50;71.00
54485;DHT22;45006;56.958;24.166;2023-04-10T14:59:20;21.60;71.50
54485;DHT22;45006;56.958;24.166;2023-04-10T15:01:47;21.50;71.10
54485;DHT22;45006;56.958;24.166;2023-04-10T15:04:14;21.50;71.10
54485;DHT22;45006;56.958;24.166;2023-04-10T15:06:41;21.50;71.50
54485;DHT22;45006;56.958;24.166;2023-04-10T15:09:09;21.50;71.40
54485;DHT22;45006;56.958;24.166;2023-04-10T15:11:37;21.50;71.40
54485;DHT22;45006;56.958;24.166;2023-04-10T15:14:03;21.50;72.10
54485;DHT22;45006;56.958;24.166;2023-04-10T15:16:30;21.50;71.80
54485;DHT22;45006;56.958;24.166;2023-04-10T15:18:58;21.50;72.00
54485;DHT22;45006;56.958;24.166;2023-04-10T15:21:27;21.50;71.90
54485;DHT22;45006;56.958;24.166;2023-04-10T15:23:54;21.50;72.00
54485;DHT22;45006;56.958;24.166;2023-04-10T15:26:21;21.50;72.20
54485;DHT22;45006;56.958;24.166;2023-04-10T15:28:48;21.50;72.20
54485;DHT22;45006;56.958;24.166;2023-04-10T15:31:15;21.50;72.30
54485;DHT22;45006;56.958;24.166;2023-04-10T15:33:42;21.50;72.40
54485;DHT22;45006;56.958;24.166;2023-04-10T15:36:09;21.50;72.90
54485;DHT22;45006;56.958;24.166;2023-04-10T15:38:36;21.50;72.70
54485;DHT22;45006;56.958;24.166;2023-04-10T15:41:08;21.50;72.70
54485;DHT22;45006;56.958;24.166;2023-04-10T15:43:36;21.50;72.50
54485;DHT22;45006;56.958;24.166;2023-04-10T15:46:03;21.50;72.60
54485;DHT22;45006;56.958;24.166;2023-04-10T15:48:31;21.50;72.70
54485;DHT22;45006;56.958;24.166;2023-04-10T15:51:02;21.40;72.70
54485;DHT22;45006;56.958;24.166;2023-04-10T15:53:29;21.40;72.90
54485;DHT22;45006;56.958;24.166;2023-04-10T15:55:55;21.40;72.70
54485;DHT22;45006;56.958;24.166;2023-04-10T15:58:23;21.40;72.90
54485;DHT22;45006;56.958;24.166;2023-04-10T16:00:50;21.40;73.10
54485;DHT22;45006;56.958;24.166;2023-04-10T16:03:17;21.40;73.30
54485;DHT22;45006;56.958;24.166;2023-04-10T16:05:44;21.40;71.70
54485;DHT22;45006;56.958;24.166;2023-04-10T16:08:11;21.40;71.00
54485;DHT22;45006;56.958;24.166;2023-04-10T16:10:38;21.40;70.00
54485;DHT22;45006;56.958;24.166;2023-04-10T16:13:05;21.40;69.70
54485;DHT22;45006;56.958;24.166;2023-04-10T16:15:33;21.40;69.50